createdAt,value
2022-08-20T00:01:19.954Z,63.98
2022-08-20T00:04:25.648Z,63.96
2022-08-20T00:07:30.797Z,64.16
2022-08-20T00:10:38.421Z,64.14
2022-08-20T00:13:47.178Z,64.09
2022-08-20T00:16:52.970Z,64.48
2022-08-20T00:19:57.120Z,65.00
2022-08-20T00:23:06.246Z,65.12
2022-08-20T00:26:16.931Z,64.64
2022-08-20T00:29:23.604Z,64.49
2022-08-20T00:32:30.040Z,64.70
2022-08-20T00:35:38.988Z,64.88
2022-08-20T00:38:46.988Z,64.93
2022-08-20T00:41:53.335Z,64.82
2022-08-20T00:44:59.568Z,64.64
2022-08-20T00:48:06.640Z,64.86
2022-08-20T00:51:30.141Z,64.92
2022-08-20T00:54:40.534Z,65.48
2022-08-20T00:58:01.711Z,66.14
2022-08-20T01:01:09.575Z,66.81
2022-08-20T01:04:16.027Z,66.75
2022-08-20T01:07:30.431Z,67.10
2022-08-20T01:10:39.491Z,66.99
2022-08-20T01:13:48.154Z,66.57
2022-08-20T01:17:01.656Z,66.31
2022-08-20T01:20:12.437Z,66.59
2022-08-20T01:23:30.480Z,65.72
2022-08-20T01:26:39.845Z,65.69
2022-08-20T01:29:47.101Z,66.00
2022-08-20T01:32:53.444Z,65.76
2022-08-20T01:36:00.734Z,65.58
2022-08-20T01:39:10.179Z,65.38
2022-08-20T01:42:25.445Z,65.38
2022-08-20T01:45:32.035Z,65.49
2022-08-20T01:48:40.060Z,65.50
2022-08-20T01:51:46.828Z,65.52
2022-08-20T01:54:55.827Z,65.66
2022-08-20T01:58:03.385Z,65.51
2022-08-20T02:01:19.856Z,65.50
2022-08-20T02:04:27.319Z,65.30
2022-08-20T02:07:34.076Z,65.17
2022-08-20T02:10:40.626Z,65.08
2022-08-20T02:13:49.894Z,65.02
2022-08-20T02:16:58.738Z,64.91
2022-08-20T02:20:09.320Z,65.03
2022-08-20T02:23:16.868Z,65.12
2022-08-20T02:26:23.401Z,65.10
2022-08-20T02:29:29.949Z,65.20
2022-08-20T02:32:36.292Z,65.27
2022-08-20T02:35:44.266Z,65.70
2022-08-20T02:38:50.641Z,65.70
2022-08-20T02:41:57.285Z,65.47
2022-08-20T02:45:06.331Z,65.46
2022-08-20T02:48:21.091Z,65.41
2022-08-20T02:51:30.181Z,65.50
2022-08-20T02:54:37.177Z,65.62
2022-08-20T02:57:43.692Z,65.40
2022-08-20T03:00:50.494Z,65.44
2022-08-20T03:03:59.230Z,65.27
2022-08-20T03:07:07.681Z,65.27
2022-08-20T03:10:14.885Z,65.36
2022-08-20T03:13:22.761Z,65.54
2022-08-20T03:16:29.040Z,65.40
2022-08-20T03:19:35.376Z,65.25
2022-08-20T03:22:41.644Z,65.57
2022-08-20T03:25:48.542Z,65.74
2022-08-20T03:28:54.902Z,65.95
2022-08-20T03:32:03.911Z,66.29
2022-08-20T03:35:16.161Z,66.04
2022-08-20T03:38:32.442Z,66.72
2022-08-20T03:41:39.845Z,67.37
2022-08-20T03:44:46.130Z,67.42
2022-08-20T03:47:55.810Z,67.57
2022-08-20T03:51:02.700Z,67.56
2022-08-20T03:54:09.139Z,67.85
2022-08-20T03:57:17.955Z,68.04
2022-08-20T04:00:27.141Z,67.74
2022-08-20T04:03:33.578Z,68.07
2022-08-20T04:06:40.434Z,68.32
2022-08-20T04:09:47.561Z,68.41
2022-08-20T04:12:53.828Z,68.20
2022-08-20T04:16:02.305Z,68.23
2022-08-20T04:19:09.542Z,68.02
2022-08-20T04:22:16.506Z,68.07
2022-08-20T04:25:24.002Z,67.94
2022-08-20T04:28:30.485Z,67.89
2022-08-20T04:31:36.743Z,67.86
2022-08-20T04:34:43.749Z,67.63
2022-08-20T04:38:01.484Z,67.58
2022-08-20T04:41:08.512Z,67.54
2022-08-20T04:44:29.008Z,67.62
2022-08-20T04:47:35.876Z,67.61
2022-08-20T04:50:45.219Z,67.28
2022-08-20T04:53:53.751Z,67.32
2022-08-20T04:57:02.137Z,67.59
2022-08-20T05:00:14.377Z,67.61
2022-08-20T05:03:21.393Z,67.47
2022-08-20T05:06:30.040Z,67.32
2022-08-20T05:09:43.935Z,67.63
2022-08-20T05:12:56.510Z,67.39
2022-08-20T05:16:05.221Z,67.36
2022-08-20T05:19:13.492Z,67.08
2022-08-20T05:22:19.821Z,67.20
2022-08-20T05:25:29.450Z,66.61
2022-08-20T05:28:42.183Z,66.32
2022-08-20T05:32:03.330Z,66.55
2022-08-20T05:35:12.453Z,67.41
2022-08-20T05:38:21.084Z,68.18
2022-08-20T05:41:30.455Z,68.08
2022-08-20T05:44:37.747Z,67.76
2022-08-20T05:47:44.796Z,67.16
2022-08-20T05:50:55.341Z,66.28
2022-08-20T05:54:01.924Z,65.47
2022-08-20T05:57:08.507Z,65.30
2022-08-20T06:00:17.393Z,64.98
2022-08-20T06:03:42.196Z,65.17
2022-08-20T06:06:48.661Z,64.46
2022-08-20T06:09:54.966Z,63.93
2022-08-20T06:13:01.445Z,64.01
2022-08-20T06:16:08.240Z,63.23
2022-08-20T06:19:14.812Z,63.94
2022-08-20T06:22:31.689Z,64.01
2022-08-20T06:25:38.877Z,63.44
2022-08-20T06:28:45.168Z,63.39
2022-08-20T06:31:51.938Z,62.54
2022-08-20T06:34:58.248Z,63.61
2022-08-20T06:38:08.244Z,63.82
2022-08-20T06:41:14.953Z,62.22
2022-08-20T06:44:21.641Z,61.18
2022-08-20T06:47:27.992Z,60.05
2022-08-20T06:50:47.029Z,59.14
2022-08-20T06:53:54.388Z,57.13
2022-08-20T06:57:00.583Z,57.65
2022-08-20T07:00:08.891Z,57.64
2022-08-20T07:03:15.833Z,58.22
2022-08-20T07:06:22.192Z,58.76
2022-08-20T07:09:29.088Z,59.52
2022-08-20T07:12:36.605Z,59.33
2022-08-20T07:15:43.228Z,59.13
2022-08-20T07:18:49.574Z,58.44
2022-08-20T07:21:56.018Z,59.17
2022-08-20T07:25:02.588Z,59.92
2022-08-20T07:28:13.991Z,59.64
2022-08-20T07:31:37.907Z,58.74
2022-08-20T07:34:44.802Z,59.99
2022-08-20T07:37:54.708Z,59.85
2022-08-20T07:41:04.643Z,60.18
2022-08-20T07:44:10.918Z,59.72
2022-08-20T07:47:21.418Z,58.81
2022-08-20T07:50:29.380Z,58.95
2022-08-20T07:53:39.150Z,58.87
2022-08-20T07:56:45.420Z,59.41
2022-08-20T07:59:51.809Z,58.20
2022-08-20T08:02:58.178Z,58.50
2022-08-20T08:06:05.317Z,58.37
2022-08-20T08:09:14.396Z,58.79
2022-08-20T08:12:21.458Z,58.54
2022-08-20T08:15:32.646Z,58.38
2022-08-20T08:18:43.227Z,58.73
2022-08-20T08:21:49.652Z,58.32
2022-08-20T08:24:58.316Z,57.67
2022-08-20T08:28:06.171Z,57.66
2022-08-20T08:31:13.460Z,57.72
2022-08-20T08:34:20.180Z,57.70
2022-08-20T08:37:30.476Z,57.49
2022-08-20T08:40:37.313Z,57.21
2022-08-20T08:43:46.928Z,57.70
2022-08-20T08:46:57.994Z,57.24
2022-08-20T08:50:07.036Z,57.26
2022-08-20T08:53:20.468Z,56.93
2022-08-20T08:56:29.779Z,56.62
2022-08-20T08:59:53.876Z,56.40
2022-08-20T09:03:09.092Z,55.89
2022-08-20T09:06:21.957Z,55.94
2022-08-20T09:09:31.525Z,56.25
2022-08-20T09:12:37.866Z,56.61
2022-08-20T09:15:44.227Z,56.78
2022-08-20T09:18:50.643Z,57.00
2022-08-20T09:21:57.560Z,56.29
2022-08-20T09:25:04.536Z,55.35
2022-08-20T09:28:10.880Z,54.69
2022-08-20T09:31:19.369Z,54.44
2022-08-20T09:34:31.781Z,54.83
2022-08-20T09:37:38.335Z,55.00
2022-08-20T09:40:44.679Z,53.95
2022-08-20T09:43:51.034Z,53.69
2022-08-20T09:46:57.345Z,53.91
2022-08-20T09:50:03.651Z,53.19
2022-08-20T09:53:11.129Z,52.12
2022-08-20T09:56:18.272Z,53.25
2022-08-20T09:59:24.666Z,52.91
2022-08-20T10:02:31.028Z,52.73
2022-08-20T10:05:37.303Z,51.77
2022-08-20T10:08:43.680Z,51.15
2022-08-20T10:11:50.153Z,51.98
2022-08-20T10:14:57.002Z,51.76
2022-08-20T10:18:07.955Z,51.65
2022-08-20T10:21:14.812Z,51.06
2022-08-20T10:24:21.871Z,50.38
2022-08-20T10:27:28.332Z,50.57
2022-08-20T10:30:34.841Z,50.27
2022-08-20T10:33:41.944Z,50.71
2022-08-20T10:36:48.381Z,50.21
2022-08-20T10:39:55.765Z,50.06
2022-08-20T10:43:03.518Z,49.87
2022-08-20T10:46:10.106Z,49.70
2022-08-20T10:49:16.516Z,49.53
2022-08-20T10:52:23.861Z,48.38
2022-08-20T10:55:30.181Z,48.51
2022-08-20T10:58:39.317Z,48.23
2022-08-20T11:01:46.374Z,48.41
2022-08-20T11:04:53.423Z,47.19
2022-08-20T11:08:00.060Z,46.97
2022-08-20T11:11:07.200Z,46.29
2022-08-20T11:14:13.671Z,45.90
2022-08-20T11:17:24.328Z,45.88
2022-08-20T11:20:32.251Z,45.55
2022-08-20T11:23:38.604Z,45.95
2022-08-20T11:26:45.293Z,45.12
2022-08-20T11:29:51.759Z,45.26
2022-08-20T11:32:58.609Z,44.68
2022-08-20T11:36:05.346Z,44.98
2022-08-20T11:39:11.825Z,44.27
2022-08-20T11:42:18.466Z,43.84
2022-08-20T11:45:24.933Z,42.84
2022-08-20T11:48:31.258Z,43.94
2022-08-20T11:51:49.064Z,43.67
2022-08-20T11:54:56.377Z,42.96
2022-08-20T11:58:03.695Z,43.13
2022-08-20T12:01:10.488Z,43.97
2022-08-20T12:04:16.915Z,42.64
2022-08-20T12:07:25.452Z,43.33
2022-08-20T12:10:32.422Z,44.07
2022-08-20T12:13:48.707Z,44.84
2022-08-20T12:16:55.462Z,45.63
2022-08-20T12:20:04.905Z,46.11
2022-08-20T12:23:11.252Z,46.42
2022-08-20T12:26:18.110Z,46.28
2022-08-20T12:29:26.281Z,46.68
2022-08-20T12:32:33.657Z,47.97
2022-08-20T12:35:39.965Z,48.85
2022-08-20T12:38:46.254Z,47.34
2022-08-20T12:41:52.657Z,48.71
2022-08-20T12:44:59.503Z,49.57
2022-08-20T12:48:08.160Z,49.87
2022-08-20T12:51:14.365Z,48.45
2022-08-20T12:54:20.701Z,49.67
2022-08-20T12:57:29.688Z,49.57
2022-08-20T13:00:38.736Z,50.61
2022-08-20T13:03:49.605Z,51.85
2022-08-20T13:07:01.615Z,50.61
2022-08-20T13:10:10.276Z,50.60
2022-08-20T13:13:20.905Z,50.67
2022-08-20T13:16:27.589Z,52.95
2022-08-20T13:19:35.658Z,54.21
2022-08-20T13:22:42.007Z,55.71
2022-08-20T13:25:48.326Z,54.89
2022-08-20T13:28:54.622Z,55.78
2022-08-20T13:32:00.916Z,55.31
2022-08-20T13:35:08.308Z,54.91
2022-08-20T13:38:15.737Z,54.83
2022-08-20T13:41:21.973Z,54.65
2022-08-20T13:44:32.294Z,54.78
2022-08-20T13:47:42.834Z,54.69
2022-08-20T13:50:49.095Z,54.95
2022-08-20T13:53:55.328Z,55.43
2022-08-20T13:57:10.103Z,55.81
2022-08-20T14:00:20.825Z,56.10
2022-08-20T14:03:27.113Z,56.35
2022-08-20T14:06:33.596Z,56.83
2022-08-20T14:09:42.058Z,56.58
2022-08-20T14:12:48.393Z,56.96
2022-08-20T14:15:55.315Z,56.87
2022-08-20T14:19:01.561Z,57.11
2022-08-20T14:22:07.992Z,57.30
2022-08-20T14:25:17.160Z,57.08
2022-08-20T14:28:25.532Z,57.34
2022-08-20T14:31:31.921Z,57.13
2022-08-20T14:34:38.257Z,57.25
2022-08-20T14:37:48.323Z,57.39
2022-08-20T14:40:54.780Z,57.40
2022-08-20T14:44:01.131Z,57.72
2022-08-20T14:47:18.524Z,57.37
2022-08-20T14:50:27.758Z,57.91
2022-08-20T14:53:38.579Z,58.29
2022-08-20T14:56:46.687Z,58.06
2022-08-20T14:59:55.074Z,58.04
2022-08-20T15:03:01.389Z,58.25
2022-08-20T15:06:20.401Z,58.30
2022-08-20T15:09:30.737Z,58.78
2022-08-20T15:12:37.324Z,59.11
2022-08-20T15:15:43.803Z,59.42
2022-08-20T15:18:50.119Z,59.70
2022-08-20T15:22:02.829Z,59.54
2022-08-20T15:25:11.832Z,59.05
2022-08-20T15:28:19.597Z,59.13
2022-08-20T15:31:26.009Z,59.33
2022-08-20T15:34:32.417Z,59.62
2022-08-20T15:37:42.811Z,59.27
2022-08-20T15:40:49.642Z,58.94
2022-08-20T15:43:55.920Z,59.17
2022-08-20T15:47:22.278Z,59.35
2022-08-20T15:50:57.975Z,59.43
2022-08-20T15:54:07.690Z,59.98
2022-08-20T15:57:17.542Z,60.29
2022-08-20T16:00:27.089Z,60.63
2022-08-20T16:03:55.534Z,60.61
2022-08-20T16:07:08.237Z,60.20
2022-08-20T16:10:23.105Z,60.45
2022-08-20T16:13:38.612Z,61.26
2022-08-20T16:16:48.264Z,61.43
2022-08-20T16:20:04.654Z,61.94
2022-08-20T16:23:12.669Z,61.39
2022-08-20T16:26:35.936Z,61.66
2022-08-20T16:29:52.277Z,62.02
2022-08-20T16:33:04.732Z,62.30
2022-08-20T16:36:16.474Z,63.36
2022-08-20T16:39:26.289Z,62.93
2022-08-20T16:42:39.352Z,62.12
2022-08-20T16:45:53.242Z,60.99
2022-08-20T16:49:01.669Z,59.02
2022-08-20T16:52:08.368Z,59.24
2022-08-20T16:55:15.661Z,59.85
2022-08-20T16:58:22.225Z,60.66
2022-08-20T17:01:29.435Z,61.92
2022-08-20T17:04:45.313Z,61.86
2022-08-20T17:08:07.687Z,64.62
2022-08-20T17:11:17.275Z,63.82
2022-08-20T17:14:23.567Z,62.08
2022-08-20T17:17:32.747Z,61.44
2022-08-20T17:20:46.729Z,61.06
2022-08-20T17:23:56.772Z,60.42
2022-08-20T17:27:10.363Z,60.76
2022-08-20T17:30:24.334Z,60.63
2022-08-20T17:33:34.172Z,61.83
2022-08-20T17:36:50.970Z,62.08
2022-08-20T17:40:09.015Z,63.51
2022-08-20T17:43:28.311Z,63.85
2022-08-20T17:46:37.685Z,63.59
2022-08-20T17:50:01.838Z,62.85
2022-08-20T17:53:23.013Z,62.66
2022-08-20T17:56:34.588Z,61.54
2022-08-20T18:00:01.071Z,61.41
2022-08-20T18:03:20.080Z,61.43
2022-08-20T18:06:34.591Z,60.81
2022-08-20T18:09:49.399Z,59.91
2022-08-20T18:13:03.037Z,60.01
2022-08-20T18:16:17.076Z,61.03
2022-08-20T18:19:41.488Z,61.55
2022-08-20T18:22:54.862Z,64.06
2022-08-20T18:26:09.595Z,64.50
2022-08-20T18:29:19.965Z,63.68
2022-08-20T18:32:32.929Z,62.77
2022-08-20T18:35:44.888Z,62.49
2022-08-20T18:39:05.751Z,62.38
2022-08-20T18:42:25.932Z,61.89
2022-08-20T18:45:34.851Z,61.45
2022-08-20T18:48:51.377Z,61.23
2022-08-20T18:51:58.520Z,61.53
2022-08-20T18:55:09.104Z,61.88
2022-08-20T18:58:29.840Z,61.91
2022-08-20T19:01:39.693Z,61.95
2022-08-20T19:04:50.024Z,61.89
2022-08-20T19:08:02.872Z,61.92
2022-08-20T19:11:29.441Z,61.76
2022-08-20T19:14:58.744Z,61.87
2022-08-20T19:18:11.487Z,61.86
2022-08-20T19:21:20.883Z,61.94
2022-08-20T19:24:30.432Z,61.92
2022-08-20T19:27:37.803Z,61.92
2022-08-20T19:30:45.055Z,61.91
2022-08-20T19:34:02.264Z,62.25
2022-08-20T19:37:34.755Z,62.40
2022-08-20T19:40:45.926Z,62.36
2022-08-20T19:43:53.851Z,62.30
2022-08-20T19:47:00.950Z,62.25
2022-08-20T19:50:20.848Z,62.38
2022-08-20T19:53:31.004Z,62.50
2022-08-20T19:56:42.794Z,62.51
2022-08-20T19:59:58.307Z,62.64
2022-08-20T20:03:11.741Z,62.73
2022-08-20T20:06:22.040Z,62.84
2022-08-20T20:09:31.015Z,62.59
2022-08-20T20:12:37.995Z,62.79
2022-08-20T20:15:45.067Z,63.06
2022-08-20T20:19:15.624Z,62.83
2022-08-20T20:22:21.570Z,62.99
2022-08-20T20:25:42.566Z,63.08
2022-08-20T20:28:52.135Z,63.05
2022-08-20T20:32:00.415Z,63.00
2022-08-20T20:35:09.112Z,62.93
2022-08-20T20:38:26.919Z,63.04
2022-08-20T20:41:33.554Z,63.29
2022-08-20T20:44:41.410Z,63.32
2022-08-20T20:47:53.424Z,63.40
2022-08-20T20:51:00.770Z,63.39
2022-08-20T20:54:08.947Z,63.60
2022-08-20T20:57:32.040Z,63.53
2022-08-20T21:00:45.151Z,63.60
2022-08-20T21:03:51.888Z,63.39
2022-08-20T21:07:00.533Z,63.43
2022-08-20T21:10:07.667Z,63.34
2022-08-20T21:13:16.391Z,63.27
2022-08-20T21:16:22.807Z,63.08
2022-08-20T21:19:29.472Z,63.27
2022-08-20T21:22:38.524Z,63.20
2022-08-20T21:25:44.965Z,63.28
2022-08-20T21:28:51.236Z,63.60
2022-08-20T21:31:58.715Z,64.10
2022-08-20T21:35:05.254Z,64.36
2022-08-20T21:38:11.883Z,64.19
2022-08-20T21:41:29.617Z,64.26
2022-08-20T21:44:38.549Z,64.40
2022-08-20T21:47:54.328Z,64.06
2022-08-20T21:51:00.701Z,63.86
2022-08-20T21:54:07.035Z,63.87
2022-08-20T21:57:21.769Z,64.52
2022-08-20T22:00:58.784Z,64.04
2022-08-20T22:04:06.956Z,64.13
2022-08-20T22:07:14.245Z,64.39
2022-08-20T22:10:20.800Z,64.15
2022-08-20T22:13:31.767Z,63.82
2022-08-20T22:16:38.630Z,63.84
2022-08-20T22:19:51.856Z,64.52
2022-08-20T22:22:58.461Z,64.68
2022-08-20T22:26:05.013Z,64.19
2022-08-20T22:29:12.974Z,64.23
2022-08-20T22:32:19.603Z,64.25
2022-08-20T22:35:42.938Z,64.39
2022-08-20T22:38:54.776Z,64.42
2022-08-20T22:42:01.529Z,64.63
2022-08-20T22:45:11.742Z,64.97
2022-08-20T22:48:23.061Z,65.05
2022-08-20T22:51:32.645Z,65.01
2022-08-20T22:54:44.564Z,64.97
2022-08-20T22:57:51.603Z,65.07
2022-08-20T23:00:59.744Z,65.00
2022-08-20T23:04:11.418Z,65.05
2022-08-20T23:07:19.268Z,65.30
2022-08-20T23:10:26.259Z,65.30
2022-08-20T23:13:32.552Z,65.33
2022-08-20T23:16:40.226Z,65.62
2022-08-20T23:19:49.112Z,65.72
2022-08-20T23:22:56.246Z,65.88
2022-08-20T23:26:03.816Z,66.33
2022-08-20T23:29:10.394Z,66.59
2022-08-20T23:32:17.427Z,66.63
2022-08-20T23:35:24.149Z,66.54
2022-08-20T23:38:38.655Z,66.49
2022-08-20T23:41:45.431Z,66.31
2022-08-20T23:44:54.586Z,66.24
2022-08-20T23:48:01.049Z,66.15
2022-08-20T23:51:08.290Z,66.35
2022-08-20T23:54:14.574Z,66.43
2022-08-20T23:57:21.214Z,66.29
